Time;durP1;ratioP1;P1;durP2;ratioP2;P2;SDS_P1;SDS_P2;PMS_P1;PMS_P2;Temp;Humidity;BMP_temperature;BMP_pressure;BME280_temperature;BME280_humidity;BME280_pressure;Samples;Min_cycle;Max_cycle;Signal;HPM_P1;HPM_P2
2022/05/26 00:02:23;;;;;;;6.20;3.97;;;;;;;15.56;79.54;101077.28;5058137;28;20053;-82
2022/05/26 00:04:50;;;;;;;7.32;4.10;;;;;;;15.58;79.58;101064.41;5051175;28;20553;-84
2022/05/26 00:07:17;;;;;;;5.25;3.80;;;;;;;15.63;79.24;101056.56;5080973;28;20102;-82
2022/05/26 00:10:00;;;;;;;8.52;4.15;;;;;;;15.73;78.94;101051.75;5057277;28;20052;-82
2022/05/26 00:12:26;;;;;;;8.60;4.40;;;;;;;15.63;79.59;101032.16;5074140;28;20037;-84
2022/05/26 00:14:52;;;;;;;;;;;;;;;15.67;79.22;101030.78;5086539;28;20127;-84
2022/05/26 00:17:17;;;;;;;8.98;3.70;;;;;;;15.69;79.46;101028.72;5059885;28;19966;-81
2022/05/26 00:19:43;;;;;;;7.40;4.10;;;;;;;15.68;79.20;101037.03;5074622;28;20032;-82
2022/05/26 00:22:15;;;;;;;7.63;4.10;;;;;;;15.63;79.59;101037.59;5086096;28;20089;-83
2022/05/26 00:24:46;;;;;;;6.20;4.13;;;;;;;15.67;79.06;101019.94;5091327;28;20139;-81
2022/05/26 00:27:22;;;;;;;6.28;3.97;;;;;;;15.81;79.01;101021.84;5081771;28;20051;-81
2022/05/26 00:29:49;;;;;;;6.82;4.00;;;;;;;15.71;79.11;101010.44;5091430;28;20157;-81
2022/05/26 00:32:26;;;;;;;5.65;3.92;;;;;;;15.66;79.43;101012.81;5070136;28;20425;-83
2022/05/26 00:34:51;;;;;;;6.10;3.50;;;;;;;15.68;79.47;101018.91;5089039;28;20040;-87
2022/05/26 00:37:21;;;;;;;7.35;3.90;;;;;;;15.65;79.80;101019.28;5089172;28;20035;-80
2022/05/26 00:39:49;;;;;;;9.77;4.18;;;;;;;15.53;80.35;101015.34;5090697;28;20032;-81
2022/05/26 00:42:17;;;;;;;9.55;4.05;;;;;;;15.54;80.46;101015.13;5081405;28;20097;-82
2022/05/26 00:44:44;;;;;;;7.50;3.53;;;;;;;15.59;80.34;101007.31;5073608;28;20044;-82
2022/05/26 00:47:18;;;;;;;7.30;3.63;;;;;;;15.49;80.39;100990.47;5041283;28;20094;-81
2022/05/26 00:49:47;;;;;;;5.70;3.60;;;;;;;15.63;80.15;101008.63;5057531;28;20036;-81
2022/05/26 00:52:16;;;;;;;7.35;3.55;;;;;;;15.67;80.17;101011.81;5082739;28;20097;-81
2022/05/26 00:54:45;;;;;;;5.50;3.33;;;;;;;15.74;79.62;100996.50;5069351;28;20057;-81
2022/05/26 00:57:22;;;;;;;4.75;3.30;;;;;;;15.70;79.81;101003.31;5071552;28;20040;-81
2022/05/26 00:59:59;;;;;;;6.07;3.38;;;;;;;15.68;79.60;100983.66;5038769;28;20111;-81
2022/05/26 01:02:33;;;;;;;6.55;3.60;;;;;;;15.66;79.73;100966.75;5055565;28;20052;-81
2022/05/26 01:05:06;;;;;;;6.53;3.60;;;;;;;15.80;79.74;100987.66;5086190;28;20035;-80
2022/05/26 01:07:36;;;;;;;5.95;3.42;;;;;;;15.53;80.25;100983.66;5055229;28;20029;-80
2022/05/26 01:10:04;;;;;;;6.30;3.75;;;;;;;15.76;80.10;101007.19;5047573;28;20040;-82
2022/05/26 01:12:33;;;;;;;6.55;3.35;;;;;;;15.79;79.64;101002.22;5054758;28;20090;-81
2022/05/26 01:15:15;;;;;;;6.18;3.50;;;;;;;15.73;79.67;100997.56;5071793;28;20098;-82
2022/05/26 01:18:12;;;;;;;8.23;3.67;;;;;;;15.92;79.12;100998.84;5058913;28;20036;-80
2022/05/26 01:20:49;;;;;;;7.07;3.70;;;;;;;15.77;79.32;101001.56;5052597;28;20067;-81
2022/05/26 01:23:31;;;;;;;5.93;3.70;;;;;;;15.81;79.15;101008.28;5071637;28;20098;-83
2022/05/26 01:26:24;;;;;;;6.47;3.88;;;;;;;16.00;78.50;101033.16;5066741;28;20060;-83
2022/05/26 01:29:08;;;;;;;4.45;3.42;;;;;;;15.96;78.78;101023.72;5062952;28;20489;-81
2022/05/26 01:31:53;;;;;;;8.57;3.72;;;;;;;15.97;78.68;101026.25;5059781;28;20111;-82
2022/05/26 01:34:44;;;;;;;7.47;3.78;;;;;;;15.99;78.55;101018.78;5044721;28;20140;-80
2022/05/26 01:37:30;;;;;;;6.40;3.60;;;;;;;15.99;78.13;101007.06;5066752;28;20043;-80
2022/05/26 01:40:32;;;;;;;8.10;3.90;;;;;;;15.99;78.52;101012.47;5051277;28;20036;-83
2022/05/26 01:43:09;;;;;;;7.72;3.78;;;;;;;15.95;78.59;101005.78;5070190;28;20189;-81
2022/05/26 01:45:59;;;;;;;7.75;3.83;;;;;;;16.01;78.59;101011.28;5071620;28;20108;-81
2022/05/26 01:48:46;;;;;;;8.60;3.85;;;;;;;15.90;78.83;100986.53;5070256;28;20040;-83
2022/05/26 01:51:28;;;;;;;5.32;4.18;;;;;;;16.01;78.56;100983.31;5086786;28;20032;-82
2022/05/26 01:53:54;;;;;;;6.88;4.18;;;;;;;15.96;79.04;100996.59;5077328;28;20040;-82
2022/05/26 01:56:28;;;;;;;6.95;3.92;;;;;;;16.03;78.28;101002.94;5080390;28;20036;-82
2022/05/26 01:59:36;;;;;;;5.93;4.38;;;;;;;16.11;78.03;100996.56;5058113;28;20055;-83
2022/05/26 02:02:11;;;;;;;6.70;4.10;;;;;;;16.07;77.82;100998.84;5006643;28;20043;-82
2022/05/26 02:04:47;;;;;;;6.30;4.23;;;;;;;16.09;77.92;100991.34;5054901;28;20105;-82
2022/05/26 02:07:21;;;;;;;;;;;;;;;16.12;77.50;100976.56;5057729;28;20040;-81
2022/05/26 02:09:46;;;;;;;8.27;3.95;;;;;;;15.98;77.86;100960.13;5079663;28;19916;-80
2022/05/26 02:12:16;;;;;;;6.55;4.30;;;;;;;16.09;77.73;100953.38;5068800;28;20047;-81
2022/05/26 02:14:59;;;;;;;5.95;3.90;;;;;;;16.16;77.36;100965.16;5089529;28;20035;-81
2022/05/26 02:17:44;;;;;;;6.95;4.30;;;;;;;16.12;77.60;100947.56;5084498;28;20512;-84
2022/05/26 02:20:27;;;;;;;5.53;3.95;;;;;;;16.18;77.59;100938.69;5075143;28;20024;-81
2022/05/26 02:23:12;;;;;;;8.18;4.10;;;;;;;16.11;77.87;100956.75;5050153;28;20476;-85
2022/05/26 02:25:38;;;;;;;10.00;4.43;;;;;;;16.12;77.84;100934.00;5069340;28;20139;-82
2022/05/26 02:28:06;;;;;;;7.95;4.13;;;;;;;16.08;77.68;100918.31;5066433;28;20031;-85
2022/05/26 02:30:37;;;;;;;9.52;4.50;;;;;;;16.06;77.93;100926.66;5060636;28;20025;-81
2022/05/26 02:33:05;;;;;;;6.97;4.20;;;;;;;16.13;77.75;100941.13;5059786;28;20067;-80
2022/05/26 02:35:36;;;;;;;6.28;4.35;;;;;;;16.18;78.09;100960.38;5061946;28;20043;-81
2022/05/26 02:38:04;;;;;;;8.50;4.20;;;;;;;16.24;77.32;100945.19;5081996;28;20189;-81
2022/05/26 02:40:30;;;;;;;9.45;4.53;;;;;;;16.28;77.39;100951.09;5081665;28;20508;-82
2022/05/26 02:43:03;;;;;;;6.45;4.00;;;;;;;16.21;77.34;100951.84;5082229;28;20052;-81
2022/05/26 02:45:57;;;;;;;5.93;4.10;;;;;;;16.33;77.03;100976.63;5057343;28;20112;-81
2022/05/26 02:48:47;;;;;;;9.57;4.53;;;;;;;16.32;77.20;100976.78;5086100;28;20040;-82
2022/05/26 02:51:29;;;;;;;6.38;4.55;;;;;;;16.24;77.35;100956.88;5088736;28;20040;-81
2022/05/26 02:54:01;;;;;;;6.45;4.47;;;;;;;16.25;77.00;100945.03;5064987;28;20146;-82
2022/05/26 02:56:34;;;;;;;9.18;4.93;;;;;;;16.27;77.41;100961.09;5060406;28;20119;-83
2022/05/26 02:59:31;;;;;;;6.80;4.75;;;;;;;16.40;76.96;100954.97;5078012;28;20024;-81
2022/05/26 03:01:59;;;;;;;7.38;4.93;;;;;;;16.36;77.03;100951.81;5094199;28;20035;-82
2022/05/26 03:04:35;;;;;;;6.95;4.95;;;;;;;16.46;76.50;100943.38;5075891;28;20028;-83
2022/05/26 03:07:04;;;;;;;9.25;4.45;;;;;;;16.38;76.95;100946.19;5075954;28;20100;-81
2022/05/26 03:09:34;;;;;;;7.05;5.00;;;;;;;16.37;77.03;100939.09;5064005;28;20055;-81
2022/05/26 03:12:00;;;;;;;7.80;5.20;;;;;;;16.43;76.91;100941.84;5102514;28;20476;-83
2022/05/26 03:14:26;;;;;;;12.30;5.47;;;;;;;16.44;76.89;100946.28;5063093;28;20030;-83
2022/05/26 03:16:51;;;;;;;10.68;5.40;;;;;;;16.20;77.26;100938.47;5075424;28;20035;-82
2022/05/26 03:19:17;;;;;;;;;;;;;;;16.25;77.92;100966.72;5086831;28;20032;-79
2022/05/26 03:21:42;;;;;;;;;;;;;;;16.39;77.73;100964.19;5095191;28;19918;-81
2022/05/26 03:24:09;;;;;;;6.28;4.88;;;;;;;16.29;77.42;100942.75;5076265;28;19966;-81
2022/05/26 03:26:37;;;;;;;7.43;5.20;;;;;;;16.32;77.77;100963.22;5092488;28;20035;-82
2022/05/26 03:29:03;;;;;;;13.13;5.65;;;;;;;16.32;77.55;100946.94;5092452;28;20419;-82
2022/05/26 03:31:32;;;;;;;7.50;5.75;;;;;;;16.47;77.20;100955.91;5072921;28;20031;-81
2022/05/26 03:42:23;;;;;;;9.27;5.65;;;;;;;16.55;77.46;100965.78;5100135;28;20046;-80
2022/05/26 03:44:49;;;;;;;9.35;6.00;;;;;;;16.51;77.39;100968.06;5091964;28;20039;-81
2022/05/26 03:47:14;;;;;;;12.43;6.07;;;;;;;16.56;77.62;100971.03;5057759;28;20057;-80
2022/05/26 03:49:40;;;;;;;;;;;;;;;16.76;77.01;100963.06;5090376;28;20036;-81
2022/05/26 03:52:06;;;;;;;11.23;5.65;;;;;;;16.84;76.39;100967.56;5108397;28;19934;-82
2022/05/26 03:54:33;;;;;;;;;;;;;;;16.79;76.44;100970.88;5066605;28;20060;-81
2022/05/26 03:56:58;;;;;;;8.98;5.75;;;;;;;16.90;76.11;100961.34;5084371;28;20308;-82
2022/05/26 03:59:24;;;;;;;12.18;6.45;;;;;;;16.89;76.65;100970.53;5069210;28;20132;-81
2022/05/26 04:01:50;;;;;;;9.27;6.00;;;;;;;16.98;76.40;100968.53;5067966;28;20086;-82
2022/05/26 04:04:16;;;;;;;8.63;6.57;;;;;;;17.08;75.78;100964.44;5065981;28;20052;-83
2022/05/26 04:06:42;;;;;;;10.60;6.30;;;;;;;17.03;75.73;100960.63;5049155;28;20102;-82
2022/05/26 04:09:08;;;;;;;13.95;6.40;;;;;;;17.16;75.42;100949.88;5052033;28;20534;-82
2022/05/26 04:11:36;;;;;;;9.80;7.07;;;;;;;17.15;75.17;100933.78;5087341;28;20050;-83
2022/05/26 04:14:04;;;;;;;8.88;5.78;;;;;;;17.40;74.49;100956.75;5051217;28;20063;-82
2022/05/26 04:16:30;;;;;;;9.82;6.47;;;;;;;17.44;74.40;100957.16;5050335;28;20039;-81
2022/05/26 04:18:58;;;;;;;;;;;;;;;17.59;73.97;100970.66;5052769;28;20032;-81
2022/05/26 04:21:33;;;;;;;10.82;6.00;;;;;;;17.61;73.72;100984.91;5074296;28;19913;-81
2022/05/26 04:23:59;;;;;;;10.07;6.22;;;;;;;17.69;73.42;100999.16;5063370;28;20107;-80
2022/05/26 04:26:25;;;;;;;10.32;6.10;;;;;;;17.73;73.24;101049.41;5066297;28;20024;-81
2022/05/26 04:28:52;;;;;;;;;;;;;;;17.75;73.32;101122.63;5068479;28;20129;-81
2022/05/26 04:31:17;;;;;;;8.60;6.60;;;;;;;17.60;73.48;101097.38;5066277;28;19995;-80
2022/05/26 04:33:44;;;;;;;;;;;;;;;17.69;73.40;101047.28;5041552;28;20124;-81
2022/05/26 04:36:10;;;;;;;13.25;6.78;;;;;;;17.80;73.24;101071.19;5057791;28;19917;-81
2022/05/26 04:38:37;;;;;;;8.93;6.28;;;;;;;17.89;72.93;101059.16;5051089;28;20044;-83
2022/05/26 04:41:07;;;;;;;12.30;7.10;;;;;;;17.82;72.55;101058.28;5047852;28;20119;-82
2022/05/26 04:43:35;;;;;;;12.40;6.45;;;;;;;18.06;72.35;101103.22;5050544;28;20442;-82
2022/05/26 04:46:02;;;;;;;11.35;6.65;;;;;;;18.28;71.56;101106.69;5069899;28;20047;-82
2022/05/26 04:48:28;;;;;;;11.70;6.45;;;;;;;18.49;70.85;101080.41;5068068;28;20028;-81
2022/05/26 04:50:55;;;;;;;;;;;;;;;18.71;69.41;101062.06;5048709;28;20040;-82
2022/05/26 04:53:22;;;;;;;10.25;6.90;;;;;;;18.77;69.55;101064.81;5058733;28;19912;-83
2022/05/26 04:55:55;;;;;;;8.50;5.78;;;;;;;19.00;67.96;101066.34;5053446;28;20423;-82
2022/05/26 04:58:23;;;;;;;10.05;6.70;;;;;;;18.96;68.11;101046.88;5091747;28;20456;-81
2022/05/26 05:00:49;;;;;;;10.18;6.50;;;;;;;19.27;67.43;101066.38;5090858;28;20035;-85
2022/05/26 05:03:15;;;;;;;8.32;6.35;;;;;;;19.33;66.72;101060.94;5098052;28;20034;-81
2022/05/26 05:05:40;;;;;;;;;;;;;;;19.47;66.40;101052.75;5084113;28;20035;-83
2022/05/26 05:08:06;;;;;;;11.95;6.55;;;;;;;19.44;66.08;101054.03;5083021;28;19931;-84
2022/05/26 05:10:33;;;;;;;;;;;;;;;19.61;65.36;101058.00;5054251;28;20024;-82
2022/05/26 05:12:58;;;;;;;9.27;6.95;;;;;;;19.42;66.21;101061.56;5075482;28;19954;-82
2022/05/26 05:15:26;;;;;;;;;;;;;;;19.38;66.16;101046.66;5070631;28;20526;-85
2022/05/26 05:17:53;;;;;;;8.57;6.50;;;;;;;19.49;65.57;101048.78;5094037;28;20060;-83
2022/05/26 05:20:18;;;;;;;9.38;6.68;;;;;;;19.77;65.13;101053.19;5090040;28;20031;-83
2022/05/26 05:22:48;;;;;;;;;;;;;;;20.04;64.54;101045.78;5066596;28;20058;-81
2022/05/26 05:25:46;;;;;;;6.85;5.45;;;;;;;20.21;64.09;101040.69;5094389;28;19920;-82
2022/05/26 05:28:29;;;;;;;11.10;6.10;;;;;;;20.11;64.32;101034.84;5095936;28;20077;-84
2022/05/26 05:31:09;;;;;;;7.97;4.90;;;;;;;20.39;63.56;101034.53;5094725;28;20066;-84
2022/05/26 05:34:07;;;;;;;7.90;5.53;;;;;;;20.72;62.89;101064.47;5091716;28;20047;-83
2022/05/26 05:36:35;;;;;;;7.28;5.25;;;;;;;20.87;61.65;101061.44;5086463;28;20039;-83
2022/05/26 05:39:04;;;;;;;9.13;5.38;;;;;;;20.70;62.07;101052.91;5078228;28;20507;-82
2022/05/26 05:41:31;;;;;;;10.30;5.50;;;;;;;20.81;61.63;101052.22;5056483;28;20034;-83
2022/05/26 05:43:56;;;;;;;7.60;5.82;;;;;;;21.12;60.73;101053.28;5073631;28;20110;-81
2022/05/26 05:46:23;;;;;;;8.70;5.55;;;;;;;21.14;61.04;101056.63;5064219;28;20043;-82
2022/05/26 05:48:49;;;;;;;8.93;5.70;;;;;;;21.27;60.06;101061.16;5095558;28;20044;-83
2022/05/26 05:51:17;;;;;;;7.93;5.20;;;;;;;21.67;59.46;101067.16;5098303;28;20031;-82
2022/05/26 05:53:44;;;;;;;6.47;5.38;;;;;;;21.81;58.56;101061.56;5080551;28;20535;-81
2022/05/26 05:56:09;;;;;;;9.40;5.63;;;;;;;21.99;57.73;101075.28;5071301;28;20028;-80
2022/05/26 05:58:36;;;;;;;7.93;5.18;;;;;;;22.12;57.99;101069.66;5057012;28;20491;-81
2022/05/26 06:01:02;;;;;;;7.40;4.85;;;;;;;22.60;56.50;101054.34;5062657;28;20488;-83
2022/05/26 06:03:33;;;;;;;8.30;5.20;;;;;;;22.65;55.97;101042.72;5066765;28;20028;-81
2022/05/26 06:06:00;;;;;;;9.05;5.32;;;;;;;22.69;55.39;101054.88;5104757;28;20031;-83
2022/05/26 06:08:29;;;;;;;9.02;5.80;;;;;;;22.75;55.63;101051.19;5073995;28;20047;-85
2022/05/26 06:10:58;;;;;;;8.52;5.18;;;;;;;22.84;54.64;101043.50;5068081;28;20024;-80
2022/05/26 06:13:31;;;;;;;21.98;12.57;;;;;;;22.55;56.00;101035.88;5093469;28;20046;-88
2022/05/26 06:15:57;;;;;;;12.60;7.20;;;;;;;22.53;55.48;101027.03;5104348;28;20040;-84
2022/05/26 06:18:23;;;;;;;14.00;7.28;;;;;;;22.77;55.11;101044.41;5094975;28;20052;-85
2022/05/26 06:20:49;;;;;;;7.60;4.63;;;;;;;22.66;55.49;101039.72;5097375;28;20031;-85
2022/05/26 06:23:20;;;;;;;11.65;5.13;;;;;;;21.99;57.09;101028.75;5078730;28;20042;-83
2022/05/26 06:25:48;;;;;;;6.15;4.85;;;;;;;22.61;55.36;101028.63;5098008;28;20031;-83
2022/05/26 06:31:11;;;;;;;8.32;5.20;;;;;;;23.58;52.87;101011.94;5103171;28;20138;-84
2022/05/26 06:39:17;;;;;;;6.38;4.57;;;;;;;23.75;52.67;101049.66;5086662;28;20062;-84
2022/05/26 06:44:28;;;;;;;8.50;4.85;;;;;;;24.46;50.59;101058.63;5086757;28;20580;-85
2022/05/26 06:46:55;;;;;;;7.95;4.65;;;;;;;24.77;49.17;101049.09;5080029;28;20043;-83
2022/05/26 06:49:23;;;;;;;7.45;4.78;;;;;;;24.94;49.20;101049.13;5089902;28;20039;-83
2022/05/26 06:51:49;;;;;;;7.97;4.97;;;;;;;25.07;48.88;101039.72;5056778;28;20044;-82
2022/05/26 06:54:19;;;;;;;7.82;4.68;;;;;;;25.06;48.32;101033.41;5093329;28;20071;-83
2022/05/26 06:56:48;;;;;;;7.15;4.90;;;;;;;24.95;48.68;101009.53;5082028;28;20028;-83
2022/05/26 06:59:16;;;;;;;9.90;5.55;;;;;;;25.34;48.22;101028.94;5089746;28;20038;-82
2022/05/26 07:01:48;;;;;;;14.85;5.70;;;;;;;25.68;47.03;101038.03;5088511;28;20043;-87
2022/05/26 07:04:15;;;;;;;8.13;5.70;;;;;;;25.75;46.45;101028.72;5106943;27;20047;-82
2022/05/26 07:06:41;;;;;;;8.48;5.38;;;;;;;26.20;46.17;101028.56;5092860;28;20047;-85
2022/05/26 07:09:08;;;;;;;7.30;5.50;;;;;;;26.43;45.23;101024.69;5078060;28;20036;-84
2022/05/26 07:11:38;;;;;;;9.25;5.20;;;;;;;26.01;46.13;101017.03;5105591;28;20028;-85
2022/05/26 07:14:10;;;;;;;8.00;4.50;;;;;;;25.88;46.90;101015.47;5112666;28;20011;-90
2022/05/26 07:16:37;;;;;;;7.10;4.45;;;;;;;26.11;46.50;101021.84;5099111;28;20134;-87
2022/05/26 07:19:11;;;;;;;8.85;4.65;;;;;;;25.82;46.78;101010.94;5095345;28;20054;-87
2022/05/26 07:21:43;;;;;;;;;;;;;;;25.57;47.40;101022.44;5077016;28;20046;-85
2022/05/26 07:24:12;;;;;;;7.60;4.65;;;;;;;25.45;47.24;101022.53;5109277;28;19915;-86
2022/05/26 07:26:42;;;;;;;11.38;4.95;;;;;;;25.65;46.36;100985.38;5059400;28;20044;-92
2022/05/26 07:29:14;;;;;;;9.43;5.25;;;;;;;26.13;46.19;100999.53;5084533;28;20486;-84
2022/05/26 07:31:46;;;;;;;11.18;5.80;;;;;;;26.90;45.00;101012.25;5092059;28;20043;-84
2022/05/26 07:34:14;;;;;;;11.50;5.70;;;;;;;26.88;44.45;101022.75;5094247;28;20103;-87
2022/05/26 07:42:17;;;;;;;9.70;5.90;;;;;;;27.88;42.00;101019.41;5098242;28;20120;-83
2022/05/26 07:44:52;;;;;;;15.00;6.22;;;;;;;28.13;42.34;101018.69;5081228;28;20050;-85
2022/05/26 07:47:20;;;;;;;15.00;6.38;;;;;;;28.87;39.68;101012.03;5092710;28;20132;-88
2022/05/26 07:50:07;;;;;;;18.85;6.90;;;;;;;29.18;39.24;101023.97;5079158;28;20047;-88
2022/05/26 07:52:44;;;;;;;12.77;6.57;;;;;;;29.58;38.51;101015.91;5114977;28;20037;-91
2022/05/26 07:55:18;;;;;;;12.40;6.40;;;;;;;29.95;37.99;101028.59;5095866;28;20048;-94
2022/05/26 07:58:21;;;;;;;21.02;6.70;;;;;;;30.64;36.66;101027.75;5062067;28;20134;-91
2022/05/26 08:00:51;;;;;;;12.10;6.32;;;;;;;31.03;36.07;101023.34;5046594;28;20462;-91
2022/05/26 08:03:20;;;;;;;15.45;6.40;;;;;;;31.44;35.13;101004.41;5048003;28;20529;-87
2022/05/26 08:05:57;;;;;;;14.60;7.93;;;;;;;31.64;34.25;101006.16;5022223;28;20033;-86
2022/05/26 08:08:37;;;;;;;16.88;5.60;;;;;;;32.12;34.14;101020.09;5053978;28;20033;-89
2022/05/26 08:11:06;;;;;;;11.40;5.32;;;;;;;32.64;32.77;101017.47;5053633;28;20045;-89
2022/05/26 08:13:42;;;;;;;12.13;7.50;;;;;;;32.81;33.15;101014.16;5066704;28;20062;-87
2022/05/26 08:16:09;;;;;;;13.95;6.20;;;;;;;33.14;32.00;101030.91;5045708;28;20506;-88
2022/05/26 08:18:39;;;;;;;14.68;5.80;;;;;;;33.25;31.61;101015.69;5036346;28;20084;-86
2022/05/26 08:21:16;;;;;;;16.05;5.45;;;;;;;33.06;31.76;101012.94;5022478;28;20053;-91
2022/05/26 08:23:43;;;;;;;9.52;5.20;;;;;;;33.33;34.45;101026.13;5036154;28;20048;-83
2022/05/26 08:26:12;;;;;;;14.98;5.78;;;;;;;33.46;32.25;101021.72;5017871;28;20045;-86
2022/05/26 08:28:39;;;;;;;12.40;5.75;;;;;;;33.71;31.69;101000.09;4994623;28;20428;-85
2022/05/26 08:31:10;;;;;;;15.35;6.05;;;;;;;34.06;30.99;101023.66;5021414;28;20508;-85
2022/05/26 08:33:38;;;;;;;12.45;6.13;;;;;;;33.79;31.11;101019.72;5030910;28;20095;-85
2022/05/26 08:36:06;;;;;;;12.98;6.00;;;;;;;34.43;31.02;101028.19;5004337;28;20073;-86
2022/05/26 08:38:35;;;;;;;12.00;5.40;;;;;;;34.72;29.92;101012.22;5053360;28;20132;-87
2022/05/26 08:41:03;;;;;;;11.57;6.10;;;;;;;34.60;30.57;101021.97;5052674;28;20148;-89
2022/05/26 08:43:59;;;;;;;14.43;6.20;;;;;;;34.87;30.46;101021.06;5026901;28;20084;-85
2022/05/26 08:46:44;;;;;;;13.18;7.20;;;;;;;35.01;29.44;101020.19;5044138;28;20095;-87
2022/05/26 08:49:38;;;;;;;15.20;9.38;;;;;;;34.96;29.81;101009.97;5049111;28;20044;-90
2022/05/26 08:52:05;;;;;;;;;;;;;;;34.96;29.76;101018.34;5032645;28;20572;-84
2022/05/26 08:54:52;;;;;;;15.45;11.40;;;;;;;34.61;30.16;101017.22;5053054;28;19939;-88
2022/05/26 08:57:41;;;;;;;15.15;11.45;;;;;;;35.51;29.16;101008.84;5074068;28;20049;-89
2022/05/26 09:00:13;;;;;;;15.23;11.10;;;;;;;35.60;28.74;101008.88;5072779;28;20101;-90
2022/05/26 09:02:43;;;;;;;19.20;12.15;;;;;;;35.90;28.21;101013.63;5070822;28;20035;-87
2022/05/26 09:05:19;;;;;;;14.02;10.95;;;;;;;36.24;27.72;101012.09;5064975;28;20052;-90
2022/05/26 09:13:39;;;;;;;16.85;10.25;;;;;;;36.79;26.81;101016.31;5007861;28;20068;-87
2022/05/26 09:16:09;;;;;;;20.13;10.65;;;;;;;36.61;27.52;100998.69;5000473;28;20042;-92
2022/05/26 09:18:36;;;;;;;16.38;9.98;;;;;;;37.16;27.06;101014.00;4951057;28;20108;-91
2022/05/26 09:21:31;;;;;;;14.38;9.18;;;;;;;37.47;26.48;101015.75;4980746;28;20037;-92
2022/05/26 09:24:32;;;;;;;18.10;8.65;;;;;;;37.71;25.77;101007.56;5005155;28;20050;-88
2022/05/26 09:27:02;;;;;;;17.70;7.82;;;;;;;38.60;25.15;101015.19;5002669;28;20038;-85
2022/05/26 09:29:39;;;;;;;11.68;7.72;;;;;;;38.94;24.27;101019.72;5017456;28;20049;-86
2022/05/26 09:32:31;;;;;;;9.82;5.00;;;;;;;39.43;23.91;101017.09;5000546;28;20041;-88
2022/05/26 09:35:11;;;;;;;9.18;4.95;;;;;;;39.13;24.08;101021.19;5000101;28;20157;-88
2022/05/26 09:37:42;;;;;;;9.45;4.97;;;;;;;38.72;24.63;101006.81;5013949;28;20458;-91
2022/05/26 09:40:21;;;;;;;13.48;5.45;;;;;;;38.73;24.41;101007.63;5024880;28;20447;-84
2022/05/26 09:42:55;;;;;;;8.10;4.70;;;;;;;37.92;25.33;101004.84;4985533;28;20421;-86
2022/05/26 09:45:21;;;;;;;;;;;;;;;38.29;25.02;101015.56;4963808;28;20136;-88
2022/05/26 09:47:57;;;;;;;7.55;4.28;;;;;;;38.68;24.86;101010.66;4990666;28;19953;-85
2022/05/26 09:50:38;;;;;;;11.55;3.90;;;;;;;39.45;24.03;101016.72;4977974;28;20044;-86
2022/05/26 09:53:10;;;;;;;7.18;4.32;;;;;;;39.79;23.78;101020.28;5018283;28;20065;-85
2022/05/26 09:55:47;;;;;;;11.38;4.90;;;;;;;39.38;23.77;101010.84;5007675;28;20034;-84
2022/05/26 09:58:37;;;;;;;6.07;3.95;;;;;;;39.18;23.88;101004.91;5001563;28;20045;-84
2022/05/26 10:01:43;;;;;;;9.57;4.63;;;;;;;38.60;24.79;101015.19;4994306;28;20029;-84
2022/05/26 10:04:39;;;;;;;6.28;4.63;;;;;;;39.42;23.43;101017.41;5014016;28;20462;-87
2022/05/26 10:07:17;;;;;;;6.93;4.63;;;;;;;39.26;23.75;101011.59;5004712;28;20049;-87
2022/05/26 10:10:12;;;;;;;13.27;5.05;;;;;;;39.58;23.18;100993.06;5012212;28;20069;-86
2022/05/26 10:13:21;;;;;;;8.05;3.97;;;;;;;40.00;23.25;101001.31;4992890;28;20594;-87
2022/05/26 10:16:28;;;;;;;7.90;4.38;;;;;;;39.87;23.01;101000.47;4993730;28;20057;-86
2022/05/26 10:19:15;;;;;;;8.45;4.22;;;;;;;39.88;23.19;100999.31;4938152;29;20041;-87
2022/05/26 10:22:08;;;;;;;8.73;4.90;;;;;;;40.68;22.46;100994.16;4991595;28;20136;-84
2022/05/26 10:24:42;;;;;;;12.07;4.85;;;;;;;40.57;22.67;100987.38;5008199;28;20041;-82
2022/05/26 10:27:29;;;;;;;9.82;4.70;;;;;;;40.09;22.94;100987.94;5031048;28;20041;-85
2022/05/26 10:30:01;;;;;;;12.10;4.82;;;;;;;39.36;23.76;100980.28;5010535;28;20045;-85
2022/05/26 10:32:52;;;;;;;7.32;4.55;;;;;;;39.81;23.76;100978.56;5005588;28;20030;-84
2022/05/26 10:35:31;;;;;;;8.57;4.00;;;;;;;38.84;25.20;100986.38;4995893;28;20037;-85
2022/05/26 10:38:23;;;;;;;7.95;3.70;;;;;;;37.95;25.90;100978.06;4954882;28;20090;-84
2022/05/26 10:40:56;;;;;;;12.57;3.87;;;;;;;36.47;28.25;100978.38;5007136;28;20046;-85
2022/05/26 10:43:43;;;;;;;8.85;3.70;;;;;;;35.86;28.73;100975.44;4996443;28;20833;-86
2022/05/26 10:46:09;;;;;;;8.02;3.42;;;;;;;35.41;29.48;100978.38;5017527;28;20116;-85
2022/05/26 10:49:01;;;;;;;10.88;3.45;;;;;;;35.45;30.14;100976.56;4978555;28;20491;-84
2022/05/26 10:52:00;;;;;;;6.95;3.20;;;;;;;35.09;29.99;100983.91;4973141;28;20144;-85
2022/05/26 10:54:41;;;;;;;7.57;3.47;;;;;;;34.56;30.83;100970.69;5026771;28;20099;-84
2022/05/26 10:57:10;;;;;;;8.10;3.30;;;;;;;33.87;32.63;100993.06;5002905;28;20153;-83
2022/05/26 10:59:52;;;;;;;8.07;3.17;;;;;;;33.29;33.13;100982.47;5027315;28;20029;-83
2022/05/26 11:02:28;;;;;;;7.30;3.38;;;;;;;31.66;36.25;100975.28;4994129;28;20042;-82
2022/05/26 11:05:01;;;;;;;7.32;3.42;;;;;;;31.55;36.38;100994.03;5020480;28;20044;-81
2022/05/26 11:07:33;;;;;;;8.75;4.03;;;;;;;31.37;36.98;100983.63;5004074;28;20043;-81
2022/05/26 11:10:11;;;;;;;6.10;3.65;;;;;;;30.98;37.27;100985.34;5017806;28;20122;-82
2022/05/26 11:12:43;;;;;;;6.85;3.97;;;;;;;31.17;37.45;100984.66;4977513;28;20043;-81
2022/05/26 11:18:13;;;;;;;10.50;4.40;;;;;;;31.11;38.02;100976.34;4966375;28;20101;-84
2022/05/26 11:20:53;;;;;;;7.75;3.53;;;;;;;31.25;37.26;100979.28;4934978;28;20073;-82
2022/05/26 11:23:20;;;;;;;8.20;4.05;;;;;;;30.46;39.28;100984.00;4967743;28;20046;-81
2022/05/26 11:25:48;;;;;;;7.80;3.45;;;;;;;30.88;38.10;100975.16;4981886;28;20039;-82
2022/05/26 11:28:30;;;;;;;9.18;3.88;;;;;;;30.76;38.08;100990.50;4979338;28;20054;-80
2022/05/26 11:36:45;;;;;;;8.50;3.33;;;;;;;31.91;30.68;100955.53;4981325;28;20049;-86
2022/05/26 11:39:23;;;;;;;9.25;3.22;;;;;;;32.55;27.99;100981.13;4980797;28;20586;-85
2022/05/26 11:42:03;;;;;;;34.92;4.10;;;;;;;32.87;27.42;100964.78;4986353;28;20034;-83
2022/05/26 11:44:30;;;;;;;11.02;3.72;;;;;;;33.11;27.37;100953.56;4939894;28;20058;-84
2022/05/26 11:47:36;;;;;;;8.05;3.60;;;;;;;33.94;26.37;100970.34;4977299;28;20031;-85
2022/05/26 11:50:04;;;;;;;6.57;3.15;;;;;;;34.17;28.31;100974.91;4941094;28;20090;-86
2022/05/26 11:52:53;;;;;;;6.25;3.20;;;;;;;34.16;29.69;100989.16;4958400;28;20042;-86
2022/05/26 11:55:48;;;;;;;19.52;4.38;;;;;;;33.77;26.14;100966.25;4979517;28;20069;-83
2022/05/26 11:58:35;;;;;;;6.25;3.40;;;;;;;33.52;26.69;100977.84;4985985;28;20382;-82
2022/05/26 12:01:16;;;;;;;13.40;3.45;;;;;;;33.71;26.84;100964.69;4994504;28;20475;-83
2022/05/26 12:03:57;;;;;;;9.05;3.38;;;;;;;34.22;26.29;100965.59;4996999;28;20424;-83
2022/05/26 12:06:34;;;;;;;7.57;4.00;;;;;;;34.00;28.06;100966.34;4964539;28;20053;-84
2022/05/26 12:09:11;;;;;;;8.73;4.03;;;;;;;33.56;28.89;100964.97;4985331;28;20046;-82
2022/05/26 12:11:58;;;;;;;8.95;3.60;;;;;;;33.81;26.99;100967.28;4980702;28;20079;-82
2022/05/26 12:14:44;;;;;;;9.55;4.10;;;;;;;34.06;26.77;100962.28;5028649;28;20120;-85
2022/05/26 12:17:51;;;;;;;13.10;3.83;;;;;;;34.33;25.92;100946.66;5004665;28;20041;-82
2022/05/26 12:20:16;;;;;;;8.43;3.60;;;;;;;34.49;25.75;100950.75;4982725;28;20038;-82
2022/05/26 12:22:54;;;;;;;7.45;3.00;;;;;;;32.53;33.83;100955.56;5008667;28;20047;-83
2022/05/26 12:25:48;;;;;;;6.70;3.55;;;;;;;32.33;34.98;100958.59;5011476;28;20022;-83
2022/05/26 12:28:20;;;;;;;5.30;3.22;;;;;;;32.02;35.00;100949.88;4991040;28;20111;-84
2022/05/26 12:30:50;;;;;;;6.40;3.10;;;;;;;31.63;36.13;100951.72;5018334;28;20045;-83
2022/05/26 12:33:18;;;;;;;5.30;2.95;;;;;;;31.29;36.76;100952.56;5006130;28;20030;-83
2022/05/26 12:35:50;;;;;;;8.10;3.40;;;;;;;30.61;38.07;100955.38;5023047;28;20108;-84
2022/05/26 12:38:50;;;;;;;5.18;3.20;;;;;;;30.74;38.69;100946.38;5014774;28;20062;-84
2022/05/26 12:41:53;;;;;;;9.95;3.72;;;;;;;30.43;39.66;100966.00;4993193;28;20380;-84